createdAt,value
2018-01-08T00:01:51.300Z,48.23
2018-01-08T00:04:18.777Z,48.63
2018-01-08T00:06:46.322Z,47.13
2018-01-08T00:09:13.800Z,47.47
2018-01-08T00:11:41.282Z,50.10
2018-01-08T00:14:08.753Z,48.30
2018-01-08T00:16:36.259Z,49.27
2018-01-08T00:19:03.716Z,50.10
2018-01-08T00:21:31.182Z,61.57
2018-01-08T00:23:58.667Z,56.73
2018-01-08T00:26:26.139Z,55.10
2018-01-08T00:28:53.595Z,54.00
2018-01-08T00:31:21.081Z,53.23
2018-01-08T00:33:48.595Z,54.23
2018-01-08T00:36:16.099Z,51.37
2018-01-08T00:38:43.560Z,59.60
2018-01-08T00:41:11.061Z,56.10
2018-01-08T00:43:38.555Z,57.00
2018-01-08T00:46:06.032Z,61.03
2018-01-08T00:48:33.523Z,60.00
2018-01-08T00:51:00.997Z,63.37
2018-01-08T00:53:28.459Z,65.03
2018-01-08T00:55:55.963Z,62.80
2018-01-08T00:58:23.434Z,68.90
2018-01-08T01:00:50.892Z,63.03
2018-01-08T01:03:19.159Z,66.73
2018-01-08T01:05:46.709Z,63.80
2018-01-08T01:08:14.257Z,62.60
2018-01-08T01:10:41.732Z,64.77
2018-01-08T01:13:09.216Z,65.57
2018-01-08T01:15:36.706Z,60.50
2018-01-08T01:18:04.213Z,66.70
2018-01-08T01:20:33.412Z,63.70
2018-01-08T01:23:00.878Z,64.30
2018-01-08T01:25:28.399Z,63.13
2018-01-08T01:27:55.883Z,64.10
2018-01-08T01:30:23.371Z,67.10
2018-01-08T01:32:50.864Z,64.40
2018-01-08T01:35:18.335Z,62.20
2018-01-08T01:37:45.799Z,65.87
2018-01-08T01:40:13.371Z,61.40
2018-01-08T01:42:40.853Z,61.10
2018-01-08T01:45:08.370Z,60.50
2018-01-08T01:47:35.926Z,60.23
2018-01-08T01:50:03.440Z,60.50
2018-01-08T01:52:30.913Z,62.07
2018-01-08T01:54:58.371Z,59.67
2018-01-08T01:57:25.845Z,61.70
2018-01-08T01:59:53.323Z,60.13
2018-01-08T02:02:23.011Z,60.87
2018-01-08T02:04:50.534Z,60.53
2018-01-08T02:07:18.009Z,58.80
2018-01-08T02:09:45.464Z,62.17
2018-01-08T02:12:12.926Z,59.10
2018-01-08T02:14:40.503Z,58.20
2018-01-08T02:17:07.979Z,58.07
2018-01-08T02:19:35.501Z,60.70
2018-01-08T02:22:02.968Z,57.77
2018-01-08T02:24:30.865Z,57.00
2018-01-08T02:26:58.319Z,58.33
2018-01-08T02:29:25.800Z,57.30
2018-01-08T02:31:53.294Z,56.93
2018-01-08T02:34:20.752Z,54.30
2018-01-08T02:36:48.319Z,54.93
2018-01-08T02:39:15.820Z,56.50
2018-01-08T02:41:43.289Z,55.70
2018-01-08T02:44:10.782Z,56.17
2018-01-08T02:46:38.426Z,53.77
2018-01-08T02:49:05.876Z,56.50
2018-01-08T02:51:33.363Z,55.90
2018-01-08T02:54:00.818Z,54.07
2018-01-08T02:56:28.322Z,56.60
2018-01-08T02:58:55.779Z,56.23
2018-01-08T03:01:23.239Z,55.57
2018-01-08T03:03:50.718Z,53.73
2018-01-08T03:06:18.176Z,53.83
2018-01-08T03:08:45.634Z,54.50
2018-01-08T03:11:13.091Z,54.97
2018-01-08T03:13:40.547Z,54.80
2018-01-08T03:16:08.023Z,56.77
2018-01-08T03:18:35.527Z,54.57
2018-01-08T03:21:03.003Z,55.67
2018-01-08T03:23:30.503Z,52.93
2018-01-08T03:25:57.978Z,50.23
2018-01-08T03:28:25.454Z,53.60
2018-01-08T03:30:52.912Z,53.67
2018-01-08T03:33:20.408Z,51.07
2018-01-08T03:35:47.889Z,50.67
2018-01-08T03:38:15.486Z,54.80
2018-01-08T03:40:42.968Z,52.60
2018-01-08T03:43:10.557Z,54.00
2018-01-08T03:45:38.009Z,55.93
2018-01-08T03:48:05.489Z,52.63
2018-01-08T03:50:32.976Z,53.23
2018-01-08T03:53:00.443Z,51.87
2018-01-08T03:55:27.964Z,51.10
2018-01-08T03:57:55.436Z,53.07
2018-01-08T04:00:23.784Z,49.57
2018-01-08T04:02:51.269Z,51.00
2018-01-08T04:05:18.748Z,49.47
2018-01-08T04:07:46.201Z,51.63
2018-01-08T04:10:13.663Z,50.73
2018-01-08T04:12:41.155Z,51.33
2018-01-08T04:15:08.611Z,49.70
2018-01-08T04:17:36.096Z,47.07
2018-01-08T04:20:03.558Z,48.33
2018-01-08T04:22:31.033Z,49.07
2018-01-08T04:25:01.699Z,47.70
2018-01-08T04:27:29.190Z,48.50
2018-01-08T04:29:57.502Z,48.63
2018-01-08T04:32:26.510Z,50.30
2018-01-08T04:34:54.369Z,48.60
2018-01-08T04:37:23.146Z,46.90
2018-01-08T04:39:51.006Z,46.80
2018-01-08T04:42:18.607Z,47.63
2018-01-08T04:44:46.078Z,48.93
2018-01-08T04:47:14.110Z,47.83
2018-01-08T04:49:42.231Z,43.60
2018-01-08T04:52:09.866Z,45.00
2018-01-08T04:54:37.314Z,47.33
2018-01-08T04:57:04.786Z,44.53
2018-01-08T04:59:32.246Z,48.50
2018-01-08T05:02:00.215Z,44.57
2018-01-08T05:04:27.666Z,46.77
2018-01-08T05:06:55.123Z,42.70
2018-01-08T05:09:22.622Z,46.37
2018-01-08T05:11:50.083Z,45.47
2018-01-08T05:14:17.543Z,46.07
2018-01-08T05:16:45.022Z,45.70
2018-01-08T05:19:12.511Z,45.23
2018-01-08T05:21:40.133Z,46.77
2018-01-08T05:24:07.670Z,45.93
2018-01-08T05:26:35.282Z,45.23
2018-01-08T05:29:02.758Z,44.17
2018-01-08T05:31:30.231Z,44.37
2018-01-08T05:33:57.700Z,43.33
2018-01-08T05:36:25.239Z,43.00
2018-01-08T05:38:52.728Z,44.27
2018-01-08T05:41:20.191Z,42.33
2018-01-08T05:43:47.667Z,43.90
2018-01-08T05:46:15.396Z,41.87
2018-01-08T05:48:42.884Z,41.17
2018-01-08T05:51:10.351Z,44.57
2018-01-08T05:53:37.810Z,41.97
2018-01-08T05:56:05.287Z,46.10
2018-01-08T05:58:32.805Z,43.90
2018-01-08T06:01:00.275Z,44.20
2018-01-08T06:03:27.782Z,42.67
2018-01-08T06:05:55.251Z,42.37
2018-01-08T06:08:22.767Z,42.00
2018-01-08T06:10:50.253Z,42.63
2018-01-08T06:13:17.727Z,41.77
2018-01-08T06:15:45.210Z,40.97
2018-01-08T06:18:12.666Z,43.73
2018-01-08T06:20:40.159Z,37.73
2018-01-08T06:23:07.616Z,41.03
2018-01-08T06:25:35.087Z,42.87
2018-01-08T06:28:02.553Z,38.43
2018-01-08T06:30:30.132Z,38.20
2018-01-08T06:32:57.620Z,38.80
2018-01-08T06:35:25.114Z,37.47
2018-01-08T06:37:52.575Z,36.60
2018-01-08T06:40:20.040Z,38.17
2018-01-08T06:42:49.774Z,36.90
2018-01-08T06:45:17.355Z,37.13
2018-01-08T06:47:45.479Z,36.40
2018-01-08T06:50:12.942Z,34.10
2018-01-08T06:52:40.404Z,36.43
2018-01-08T06:55:07.883Z,35.70
2018-01-08T06:57:35.343Z,35.10
2018-01-08T07:00:02.889Z,35.90
2018-01-08T07:02:31.347Z,35.87
2018-01-08T07:04:58.867Z,36.00
2018-01-08T07:07:26.356Z,31.40
2018-01-08T07:09:53.807Z,36.40
2018-01-08T07:12:21.271Z,38.00
2018-01-08T07:14:48.736Z,36.97
2018-01-08T07:17:16.231Z,35.23
2018-01-08T07:19:43.709Z,36.37
2018-01-08T07:22:11.179Z,36.40
2018-01-08T07:24:38.661Z,33.63
2018-01-08T07:27:06.128Z,29.80
2018-01-08T07:29:33.591Z,30.33
2018-01-08T07:32:01.058Z,34.23
2018-01-08T07:34:28.539Z,31.40
2018-01-08T07:36:56.005Z,32.10
2018-01-08T07:39:23.606Z,30.60
2018-01-08T07:41:51.069Z,30.03
2018-01-08T07:44:18.694Z,28.47
2018-01-08T07:46:46.218Z,30.33
2018-01-08T07:49:13.746Z,30.00
2018-01-08T07:51:41.233Z,28.30
2018-01-08T07:54:08.742Z,29.20
2018-01-08T07:56:36.971Z,31.10
2018-01-08T07:59:04.540Z,28.00
2018-01-08T08:01:32.058Z,29.47
2018-01-08T08:03:59.514Z,29.30
2018-01-08T08:06:26.979Z,29.40
2018-01-08T08:08:54.468Z,30.93
2018-01-08T08:11:21.967Z,29.47
2018-01-08T08:13:49.429Z,30.60
2018-01-08T08:16:17.028Z,29.83
2018-01-08T08:18:44.482Z,32.10
2018-01-08T08:21:12.084Z,31.23
2018-01-08T08:23:39.567Z,30.67
2018-01-08T08:26:07.309Z,31.20
2018-01-08T08:28:34.779Z,31.50
2018-01-08T08:31:02.253Z,31.13
2018-01-08T08:33:29.723Z,30.50
2018-01-08T08:35:57.182Z,32.10
2018-01-08T08:38:24.628Z,29.77
2018-01-08T08:40:52.123Z,30.83
2018-01-08T08:43:19.587Z,28.70
2018-01-08T08:45:47.035Z,31.50
2018-01-08T08:48:14.500Z,30.50
2018-01-08T08:50:42.013Z,30.03
2018-01-08T08:53:09.467Z,34.03
2018-01-08T08:55:36.933Z,32.83
2018-01-08T08:58:04.431Z,28.40
2018-01-08T09:00:31.963Z,28.13
2018-01-08T09:02:59.450Z,29.60
2018-01-08T09:05:26.920Z,26.97
2018-01-08T09:07:54.398Z,30.40
2018-01-08T09:10:21.863Z,29.20
2018-01-08T09:12:49.347Z,27.60
2018-01-08T09:15:16.859Z,27.20
2018-01-08T09:17:44.319Z,29.67
2018-01-08T09:20:11.783Z,29.00
2018-01-08T09:22:39.247Z,26.77
2018-01-08T09:25:06.714Z,28.43
2018-01-08T09:27:34.201Z,28.93
2018-01-08T09:30:01.691Z,29.90
2018-01-08T09:32:29.155Z,28.10
2018-01-08T09:34:56.634Z,28.03
2018-01-08T09:37:24.110Z,28.90
2018-01-08T09:39:51.574Z,28.17
2018-01-08T09:42:19.040Z,28.50
2018-01-08T09:44:46.564Z,30.27
2018-01-08T09:47:14.131Z,31.20
2018-01-08T09:49:41.643Z,29.67
2018-01-08T09:52:09.152Z,27.70
2018-01-08T09:54:36.619Z,25.97
2018-01-08T09:57:04.102Z,27.47
2018-01-08T09:59:31.567Z,26.10
2018-01-08T10:01:59.082Z,28.70
2018-01-08T10:04:38.454Z,27.97
2018-01-08T10:07:17.715Z,28.43
2018-01-08T10:09:56.870Z,26.77
2018-01-08T10:12:36.165Z,27.60
2018-01-08T10:15:15.659Z,26.77
2018-01-08T10:17:54.789Z,25.20
2018-01-08T10:20:22.334Z,25.30
2018-01-08T10:22:49.841Z,26.00
2018-01-08T10:25:17.298Z,25.67
2018-01-08T10:27:44.769Z,24.10
2018-01-08T10:30:12.243Z,24.20
2018-01-08T10:32:39.727Z,25.23
2018-01-08T10:35:07.207Z,24.67
2018-01-08T10:37:34.676Z,23.70
2018-01-08T10:40:02.163Z,26.93
2018-01-08T10:42:35.290Z,26.83
2018-01-08T10:45:08.320Z,26.63
2018-01-08T10:47:41.283Z,27.50
2018-01-08T10:50:14.414Z,26.97
2018-01-08T10:52:42.619Z,26.23
2018-01-08T10:55:10.075Z,24.40
2018-01-08T10:57:37.559Z,25.23
2018-01-08T11:00:05.030Z,26.10
2018-01-08T11:02:38.089Z,28.37
2018-01-08T11:05:05.627Z,25.07
2018-01-08T11:07:33.169Z,23.00
2018-01-08T11:10:00.626Z,29.40
2018-01-08T11:12:28.242Z,28.43
2018-01-08T11:14:55.724Z,29.00
2018-01-08T11:17:23.199Z,24.97
2018-01-08T11:19:50.671Z,25.87
2018-01-08T11:22:18.179Z,25.20
2018-01-08T11:24:45.702Z,24.33
2018-01-08T11:27:13.158Z,26.20
2018-01-08T11:29:40.632Z,25.80
2018-01-08T11:32:08.084Z,25.23
2018-01-08T11:34:35.588Z,26.47
2018-01-08T11:37:03.032Z,26.93
2018-01-08T11:39:30.486Z,25.47
2018-01-08T11:41:58.004Z,25.83
2018-01-08T11:44:25.469Z,30.30
2018-01-08T11:46:52.951Z,28.10
2018-01-08T11:49:20.419Z,27.30
2018-01-08T11:51:47.894Z,27.60
2018-01-08T11:54:15.343Z,27.27
2018-01-08T11:56:42.817Z,28.80
2018-01-08T11:59:10.399Z,27.30
2018-01-08T12:01:37.885Z,31.57
2018-01-08T12:04:05.390Z,29.37
2018-01-08T12:06:32.842Z,30.03
2018-01-08T12:09:00.363Z,29.97
2018-01-08T12:11:27.843Z,32.10
2018-01-08T12:13:55.330Z,29.80
2018-01-08T12:16:22.839Z,31.30
2018-01-08T12:18:51.607Z,29.00
2018-01-08T12:21:19.265Z,30.03
2018-01-08T12:23:46.742Z,29.27
2018-01-08T12:26:14.209Z,29.63
2018-01-08T12:28:41.667Z,31.77
2018-01-08T12:31:09.119Z,28.50
2018-01-08T12:33:36.568Z,29.50
2018-01-08T12:36:04.029Z,29.73
2018-01-08T12:38:31.513Z,30.07
2018-01-08T12:40:58.980Z,28.27
2018-01-08T12:43:26.512Z,30.90
2018-01-08T12:45:53.970Z,31.20
2018-01-08T12:48:21.446Z,31.03
2018-01-08T12:50:48.964Z,30.87
2018-01-08T12:53:16.491Z,31.93
2018-01-08T12:55:43.965Z,30.10
2018-01-08T12:58:11.439Z,30.47
2018-01-08T13:00:38.926Z,29.70
2018-01-08T13:03:06.381Z,30.90
2018-01-08T13:05:33.852Z,27.97
2018-01-08T13:08:01.348Z,29.27
2018-01-08T13:10:28.826Z,28.93
2018-01-08T13:12:56.280Z,28.30
2018-01-08T13:15:23.756Z,27.17
2018-01-08T13:17:51.223Z,26.93
2018-01-08T13:20:18.813Z,27.27
2018-01-08T13:22:46.277Z,29.30
2018-01-08T13:25:13.738Z,27.73
2018-01-08T13:27:41.226Z,27.47
2018-01-08T13:30:08.701Z,27.60
2018-01-08T13:32:36.177Z,31.10
2018-01-08T13:35:03.671Z,29.23
2018-01-08T13:37:31.126Z,28.40
2018-01-08T13:39:58.605Z,28.50
2018-01-08T13:42:26.103Z,26.97
2018-01-08T13:44:53.574Z,30.27
2018-01-08T13:47:21.060Z,29.77
2018-01-08T13:49:48.556Z,30.77
2018-01-08T13:52:16.847Z,30.23
2018-01-08T13:54:45.035Z,29.07
2018-01-08T13:57:12.538Z,29.40
2018-01-08T13:59:40.018Z,26.97
2018-01-08T14:02:07.488Z,28.70
2018-01-08T14:04:35.039Z,29.40
2018-01-08T14:07:02.525Z,27.40
2018-01-08T14:09:30.314Z,26.33
2018-01-08T14:11:57.780Z,28.83
2018-01-08T14:14:25.243Z,29.20
2018-01-08T14:16:52.710Z,29.33
2018-01-08T14:19:20.187Z,27.60
2018-01-08T14:21:47.638Z,28.43
2018-01-08T14:24:15.125Z,26.47
2018-01-08T14:26:42.599Z,26.53
2018-01-08T14:29:10.101Z,26.40
2018-01-08T14:31:37.585Z,27.50
2018-01-08T14:34:05.102Z,28.53
2018-01-08T14:36:32.656Z,27.27
2018-01-08T14:39:00.145Z,26.23
2018-01-08T14:41:27.607Z,27.40
2018-01-08T14:43:55.098Z,28.43
2018-01-08T14:46:22.599Z,27.30
2018-01-08T14:48:50.082Z,27.43
2018-01-08T14:51:17.828Z,26.50
2018-01-08T14:53:45.313Z,27.87
2018-01-08T14:56:12.775Z,26.90
2018-01-08T14:58:40.883Z,26.20
2018-01-08T15:01:08.361Z,28.03
2018-01-08T15:03:35.814Z,28.67
2018-01-08T15:06:03.312Z,28.90
2018-01-08T15:08:30.876Z,29.33
2018-01-08T15:10:58.394Z,30.83
2018-01-08T15:13:25.835Z,29.27
2018-01-08T15:15:53.302Z,31.40
2018-01-08T15:18:20.844Z,29.87
2018-01-08T15:20:48.321Z,30.43
2018-01-08T15:23:15.852Z,31.43
2018-01-08T15:25:43.324Z,31.10
2018-01-08T15:28:10.815Z,29.47
2018-01-08T15:30:38.290Z,31.30
2018-01-08T15:33:05.755Z,32.40
2018-01-08T15:35:33.247Z,29.53
2018-01-08T15:38:00.770Z,32.20
2018-01-08T15:40:28.270Z,30.23
2018-01-08T15:42:55.762Z,30.40
2018-01-08T15:45:23.241Z,30.90
2018-01-08T15:47:50.695Z,28.13
2018-01-08T15:50:18.191Z,30.27
2018-01-08T15:52:47.074Z,29.90
2018-01-08T15:55:14.550Z,31.60
2018-01-08T15:57:42.111Z,30.10
2018-01-08T16:00:09.618Z,30.60
2018-01-08T16:02:37.096Z,28.37
2018-01-08T16:05:04.576Z,31.03
2018-01-08T16:07:32.034Z,29.43
2018-01-08T16:09:59.509Z,30.00
2018-01-08T16:12:27.372Z,29.93
2018-01-08T16:14:54.914Z,32.87
2018-01-08T16:17:22.414Z,30.00
2018-01-08T16:19:49.888Z,31.47
2018-01-08T16:22:17.482Z,31.57
2018-01-08T16:24:45.413Z,31.93
2018-01-08T16:27:12.907Z,32.17
2018-01-08T16:29:40.391Z,30.20
2018-01-08T16:32:07.875Z,35.90
2018-01-08T16:34:37.888Z,33.10
2018-01-08T16:37:05.393Z,31.00
2018-01-08T16:39:33.867Z,31.33
2018-01-08T16:42:01.343Z,32.20
2018-01-08T16:44:28.800Z,33.83
2018-01-08T16:46:56.352Z,32.37
2018-01-08T16:49:23.807Z,31.73
2018-01-08T16:51:51.271Z,34.13
2018-01-08T16:54:18.777Z,35.10
2018-01-08T16:56:46.323Z,34.67
2018-01-08T16:59:13.805Z,32.57
2018-01-08T17:01:41.297Z,32.87
2018-01-08T17:04:08.791Z,33.70
2018-01-08T17:06:36.879Z,34.00
2018-01-08T17:09:04.411Z,32.93
2018-01-08T17:11:31.911Z,34.13
2018-01-08T17:13:59.424Z,32.37
2018-01-08T17:16:26.945Z,33.40
2018-01-08T17:18:54.440Z,34.60
2018-01-08T17:21:21.933Z,35.53
2018-01-08T17:23:49.466Z,33.93
2018-01-08T17:26:17.147Z,33.90
2018-01-08T17:28:44.643Z,34.97
2018-01-08T17:31:12.199Z,34.27
2018-01-08T17:33:39.706Z,35.50
2018-01-08T17:36:07.208Z,36.80
2018-01-08T17:38:34.814Z,36.10
2018-01-08T17:41:02.399Z,36.10
2018-01-08T17:43:29.908Z,34.63
2018-01-08T17:45:57.399Z,33.00
2018-01-08T17:48:25.114Z,37.07
2018-01-08T17:50:52.618Z,34.90
2018-01-08T17:53:20.183Z,33.80
2018-01-08T17:55:47.706Z,34.67
2018-01-08T17:58:15.253Z,34.53
2018-01-08T18:00:42.780Z,35.20
2018-01-08T18:03:10.301Z,34.97
2018-01-08T18:05:37.797Z,34.17
2018-01-08T18:08:05.311Z,40.23
2018-01-08T18:10:33.288Z,36.20
2018-01-08T18:13:00.831Z,36.50
2018-01-08T18:15:28.327Z,36.30
2018-01-08T18:17:55.829Z,38.60
2018-01-08T18:20:23.345Z,38.33
2018-01-08T18:22:50.814Z,38.57
2018-01-08T18:25:18.313Z,36.10
2018-01-08T18:27:45.899Z,34.47
2018-01-08T18:30:13.415Z,34.83
2018-01-08T18:32:41.969Z,34.73
2018-01-08T18:35:09.516Z,34.00
2018-01-08T18:37:37.036Z,32.80
2018-01-08T18:40:04.606Z,34.87
2018-01-08T18:42:32.364Z,33.47
2018-01-08T18:44:59.909Z,33.60
2018-01-08T18:47:27.427Z,34.53
2018-01-08T18:49:54.958Z,32.10
2018-01-08T18:52:22.460Z,33.50
2018-01-08T18:54:49.977Z,35.27
2018-01-08T18:57:17.574Z,34.43
2018-01-08T18:59:45.088Z,33.80
2018-01-08T19:02:12.632Z,33.87
2018-01-08T19:04:40.200Z,34.53
2018-01-08T19:07:07.704Z,34.67
2018-01-08T19:09:35.198Z,35.10
2018-01-08T19:12:02.701Z,38.23
2018-01-08T19:14:30.232Z,35.60
2018-01-08T19:16:57.743Z,35.33
2018-01-08T19:19:25.258Z,36.63
2018-01-08T19:21:52.721Z,33.93
2018-01-08T19:24:20.183Z,32.90
2018-01-08T19:26:47.656Z,33.97
2018-01-08T19:29:15.141Z,36.27
2018-01-08T19:31:42.701Z,34.50
2018-01-08T19:34:10.209Z,36.10
2018-01-08T19:36:37.664Z,35.43
2018-01-08T19:39:05.223Z,35.70
2018-01-08T19:41:32.693Z,35.20
2018-01-08T19:44:00.982Z,36.97
2018-01-08T19:46:28.433Z,34.47
2018-01-08T19:48:55.962Z,35.90
2018-01-08T19:51:23.477Z,36.87
2018-01-08T19:53:51.074Z,37.67
2018-01-08T19:56:18.541Z,37.17
2018-01-08T19:58:46.209Z,36.30
2018-01-08T20:01:13.728Z,37.40
2018-01-08T20:03:41.208Z,38.50
2018-01-08T20:06:08.727Z,35.03
2018-01-08T20:08:36.306Z,37.50
2018-01-08T20:11:03.808Z,38.93
2018-01-08T20:13:31.358Z,37.60
2018-01-08T20:15:58.890Z,38.80
2018-01-08T20:18:26.437Z,36.40
2018-01-08T20:20:53.919Z,38.93
2018-01-08T20:23:21.427Z,39.87
2018-01-08T20:25:49.006Z,39.60
2018-01-08T20:28:16.722Z,43.97
2018-01-08T20:30:44.226Z,45.60
2018-01-08T20:33:11.702Z,41.93
2018-01-08T20:35:39.151Z,39.67
2018-01-08T20:38:06.687Z,41.90
2018-01-08T20:40:34.305Z,43.17
2018-01-08T20:43:01.858Z,43.83
2018-01-08T20:45:29.354Z,46.17
2018-01-08T20:47:56.876Z,45.10
2018-01-08T20:50:24.351Z,44.60
2018-01-08T20:52:51.822Z,45.37
2018-01-08T20:55:19.290Z,43.87
2018-01-08T20:57:46.807Z,44.90
2018-01-08T21:00:14.328Z,41.13
2018-01-08T21:02:41.809Z,46.40
2018-01-08T21:05:10.300Z,48.47
2018-01-08T21:07:37.801Z,50.40
2018-01-08T21:10:05.270Z,48.73
2018-01-08T21:12:32.764Z,47.90
2018-01-08T21:15:00.252Z,51.07
2018-01-08T21:17:27.748Z,49.00
2018-01-08T21:19:55.228Z,51.43
2018-01-08T21:22:22.718Z,56.10
2018-01-08T21:24:50.204Z,57.23
2018-01-08T21:27:17.798Z,53.50
2018-01-08T21:29:45.311Z,55.30
2018-01-08T21:32:12.793Z,53.40
2018-01-08T21:34:40.290Z,58.50
2018-01-08T21:37:07.747Z,56.60
2018-01-08T21:39:35.273Z,60.47
2018-01-08T21:42:02.798Z,57.20
2018-01-08T21:44:30.286Z,58.90
2018-01-08T21:46:57.755Z,56.37
2018-01-08T21:49:25.243Z,56.97
2018-01-08T21:51:52.695Z,50.83
2018-01-08T21:54:20.173Z,51.03
2018-01-08T21:56:47.648Z,45.60
2018-01-08T21:59:15.121Z,46.23
2018-01-08T22:01:42.590Z,46.30
2018-01-08T22:04:10.052Z,44.33
2018-01-08T22:06:37.530Z,42.23
2018-01-08T22:09:05.066Z,41.37
2018-01-08T22:11:32.526Z,41.63
2018-01-08T22:13:59.986Z,40.60
2018-01-08T22:16:27.466Z,37.87
2018-01-08T22:18:54.934Z,38.27
2018-01-08T22:21:22.473Z,35.93
2018-01-08T22:23:49.940Z,37.27
2018-01-08T22:26:17.526Z,37.10
2018-01-08T22:28:45.018Z,38.40
2018-01-08T22:31:12.499Z,36.03
2018-01-08T22:33:39.963Z,39.70
2018-01-08T22:36:07.440Z,38.00
2018-01-08T22:38:35.235Z,37.67
2018-01-08T22:41:02.720Z,39.30
2018-01-08T22:43:30.187Z,40.17
2018-01-08T22:45:57.655Z,38.83
2018-01-08T22:48:25.217Z,41.87
2018-01-08T22:50:52.742Z,40.70
2018-01-08T22:53:20.210Z,39.53
2018-01-08T22:55:47.684Z,41.00
2018-01-08T22:58:15.403Z,43.97
2018-01-08T23:00:42.928Z,43.20
2018-01-08T23:03:10.439Z,43.57
2018-01-08T23:05:37.896Z,43.93
2018-01-08T23:08:05.363Z,44.43
2018-01-08T23:10:33.119Z,43.67
2018-01-08T23:13:00.614Z,45.20
2018-01-08T23:15:28.103Z,46.40
2018-01-08T23:17:55.602Z,46.37
2018-01-08T23:20:23.055Z,45.60
2018-01-08T23:22:50.564Z,46.73
2018-01-08T23:25:18.044Z,46.87
2018-01-08T23:27:45.525Z,47.70
2018-01-08T23:30:13.000Z,45.37
2018-01-08T23:32:40.482Z,48.37
2018-01-08T23:35:07.994Z,47.30
2018-01-08T23:37:35.484Z,47.57
2018-01-08T23:40:03.067Z,48.67
2018-01-08T23:42:30.712Z,47.70
2018-01-08T23:44:58.204Z,47.77
2018-01-08T23:47:25.667Z,48.73
2018-01-08T23:49:53.159Z,47.73
2018-01-08T23:52:20.680Z,47.17
2018-01-08T23:54:48.286Z,46.10
2018-01-08T23:57:15.947Z,47.33
2018-01-08T23:59:43.428Z,44.63
